createdAt,value
2023-10-31T00:03:02.357Z,13.04
2023-10-31T00:06:05.386Z,13.18
2023-10-31T00:09:11.654Z,13.03
2023-10-31T00:12:14.358Z,13.17
2023-10-31T00:15:17.010Z,13.31
2023-10-31T00:18:19.629Z,13.19
2023-10-31T00:21:22.400Z,13.17
2023-10-31T00:24:27.029Z,13.24
2023-10-31T00:27:29.711Z,13.26
2023-10-31T00:30:32.378Z,13.10
2023-10-31T00:33:35.064Z,13.30
2023-10-31T00:36:37.959Z,13.36
2023-10-31T00:39:42.322Z,13.34
2023-10-31T00:42:44.956Z,13.26
2023-10-31T00:45:47.628Z,13.20
2023-10-31T00:48:50.414Z,13.17
2023-10-31T00:51:53.111Z,13.42
2023-10-31T00:54:57.096Z,13.42
2023-10-31T00:57:59.739Z,13.16
2023-10-31T01:01:02.422Z,13.25
2023-10-31T01:04:05.593Z,13.42
2023-10-31T01:07:08.241Z,13.52
2023-10-31T01:10:12.536Z,13.43
2023-10-31T01:13:15.212Z,13.48
2023-10-31T01:16:18.308Z,13.64
2023-10-31T01:19:21.008Z,13.41
2023-10-31T01:22:23.655Z,13.33
2023-10-31T01:25:27.703Z,13.37
2023-10-31T01:28:30.317Z,13.41
2023-10-31T01:31:37.552Z,13.48
2023-10-31T01:34:42.130Z,13.59
2023-10-31T01:37:44.801Z,13.57
2023-10-31T01:40:52.274Z,13.56
2023-10-31T01:43:55.182Z,13.35
2023-10-31T01:46:58.199Z,13.58
2023-10-31T01:50:01.380Z,13.57
2023-10-31T01:53:04.418Z,13.45
2023-10-31T01:56:09.381Z,13.46
2023-10-31T01:59:12.155Z,13.64
2023-10-31T02:02:15.315Z,13.50
2023-10-31T02:05:18.227Z,13.64
2023-10-31T02:08:20.925Z,13.39
2023-10-31T02:11:24.912Z,13.28
2023-10-31T02:14:27.546Z,13.55
2023-10-31T02:17:30.419Z,13.44
2023-10-31T02:20:33.145Z,13.57
2023-10-31T02:23:37.384Z,13.54
2023-10-31T02:26:40.425Z,13.54
2023-10-31T02:29:43.097Z,13.46
2023-10-31T02:32:45.946Z,13.41
2023-10-31T02:35:48.674Z,13.44
2023-10-31T02:38:52.645Z,13.41
2023-10-31T02:41:55.298Z,13.25
2023-10-31T02:44:57.998Z,13.42
2023-10-31T02:48:00.796Z,13.48
2023-10-31T02:51:03.584Z,13.54
2023-10-31T02:54:08.417Z,13.30
2023-10-31T02:57:11.554Z,13.26
2023-10-31T03:00:15.169Z,13.48
2023-10-31T03:03:17.858Z,13.43
2023-10-31T03:06:20.549Z,13.56
2023-10-31T03:13:46.080Z,13.45
2023-10-31T03:16:48.849Z,13.47
2023-10-31T03:19:51.546Z,13.32
2023-10-31T03:22:54.267Z,13.32
2023-10-31T03:25:56.950Z,13.54
2023-10-31T03:29:01.034Z,13.42
2023-10-31T03:32:03.718Z,13.44
2023-10-31T03:35:07.332Z,13.57
2023-10-31T03:38:10.316Z,13.63
2023-10-31T03:41:14.244Z,13.73
2023-10-31T03:44:18.393Z,13.59
2023-10-31T03:47:21.101Z,13.59
2023-10-31T03:50:23.902Z,13.72
2023-10-31T03:53:26.621Z,13.69
2023-10-31T03:56:29.269Z,13.62
2023-10-31T03:59:33.234Z,13.46
2023-10-31T04:02:35.883Z,13.71
2023-10-31T04:05:38.611Z,13.76
2023-10-31T04:08:42.117Z,13.66
2023-10-31T04:11:45.829Z,13.68
2023-10-31T04:14:49.796Z,13.82
2023-10-31T04:17:52.463Z,13.68
2023-10-31T04:20:55.359Z,13.70
2023-10-31T04:23:57.986Z,13.66
2023-10-31T04:27:00.684Z,13.71
2023-10-31T04:30:05.231Z,13.66
2023-10-31T04:33:08.059Z,13.65
2023-10-31T04:36:11.221Z,13.57
2023-10-31T04:39:13.853Z,13.63
2023-10-31T04:42:16.481Z,13.67
2023-10-31T04:45:20.482Z,13.81
2023-10-31T04:48:23.255Z,13.83
2023-10-31T04:51:25.930Z,13.77
2023-10-31T04:54:28.577Z,13.84
2023-10-31T04:57:31.226Z,13.67
2023-10-31T05:00:35.210Z,13.55
2023-10-31T05:03:37.885Z,13.66
2023-10-31T05:06:40.573Z,13.64
2023-10-31T05:09:46.476Z,13.30
2023-10-31T05:12:49.857Z,13.46
2023-10-31T05:15:53.912Z,13.51
2023-10-31T05:18:56.567Z,13.42
2023-10-31T05:21:59.187Z,13.68
2023-10-31T05:25:01.834Z,13.58
2023-10-31T05:28:04.673Z,13.57
2023-10-31T05:31:08.733Z,13.59
2023-10-31T05:34:11.371Z,13.49
2023-10-31T05:37:14.028Z,13.60
2023-10-31T05:40:17.467Z,13.40
2023-10-31T05:43:20.117Z,13.52
2023-10-31T05:46:24.113Z,13.59
2023-10-31T05:49:26.807Z,13.64
2023-10-31T05:52:30.647Z,13.79
2023-10-31T05:55:35.621Z,13.88
2023-10-31T05:58:38.946Z,13.82
2023-10-31T06:01:43.015Z,13.87
2023-10-31T06:04:46.018Z,13.82
2023-10-31T06:07:49.062Z,13.82
2023-10-31T06:10:51.867Z,13.70
2023-10-31T06:13:54.545Z,13.67
2023-10-31T06:17:00.424Z,13.62
2023-10-31T06:20:04.167Z,13.68
2023-10-31T06:23:06.905Z,13.62
2023-10-31T06:26:09.753Z,13.60
2023-10-31T06:29:36.957Z,13.44
2023-10-31T06:32:36.423Z,13.44
2023-10-31T06:35:39.162Z,13.48
2023-10-31T06:38:41.818Z,13.38
2023-10-31T06:41:44.448Z,13.49
2023-10-31T06:44:47.093Z,13.56
2023-10-31T06:47:51.145Z,13.13
2023-10-31T06:50:53.850Z,13.28
2023-10-31T06:53:56.502Z,13.22
2023-10-31T06:56:59.184Z,12.98
2023-10-31T07:00:01.868Z,12.85
2023-10-31T07:03:10.275Z,12.93
2023-10-31T07:06:13.068Z,13.08
2023-10-31T07:09:17.798Z,13.02
2023-10-31T07:12:21.075Z,12.85
2023-10-31T07:15:23.740Z,12.81
2023-10-31T07:18:27.725Z,12.62
2023-10-31T07:21:30.358Z,12.62
2023-10-31T07:24:33.053Z,12.41
2023-10-31T07:27:35.709Z,12.57
2023-10-31T07:30:38.345Z,12.47
2023-10-31T07:33:42.334Z,12.53
2023-10-31T07:36:44.993Z,12.26
2023-10-31T07:39:47.699Z,12.35
2023-10-31T07:42:50.316Z,12.26
2023-10-31T07:45:53.022Z,12.19
2023-10-31T07:48:57.048Z,12.40
2023-10-31T07:51:59.692Z,12.13
2023-10-31T07:55:02.343Z,12.31
2023-10-31T07:58:05.003Z,12.20
2023-10-31T08:01:11.438Z,12.21
2023-10-31T08:04:16.237Z,12.04
2023-10-31T08:07:18.981Z,11.85
2023-10-31T08:10:21.725Z,12.27
2023-10-31T08:13:24.361Z,12.21
2023-10-31T08:16:27.027Z,12.30
2023-10-31T08:19:31.060Z,12.20
2023-10-31T08:22:34.085Z,12.12
2023-10-31T08:25:36.886Z,12.21
2023-10-31T08:28:39.571Z,12.07
2023-10-31T08:31:42.222Z,11.91
2023-10-31T08:34:46.398Z,12.06
2023-10-31T08:37:49.101Z,11.83
2023-10-31T08:40:51.813Z,11.91
2023-10-31T08:43:54.914Z,11.98
2023-10-31T08:46:57.566Z,12.10
2023-10-31T08:50:01.677Z,12.20
2023-10-31T08:53:04.358Z,12.17
2023-10-31T08:56:07.510Z,11.87
2023-10-31T08:59:10.391Z,12.06
2023-10-31T09:02:13.139Z,12.17
2023-10-31T09:05:17.186Z,11.99
2023-10-31T09:08:19.883Z,12.10
2023-10-31T09:11:22.840Z,12.10
2023-10-31T09:14:25.563Z,12.04
2023-10-31T09:17:28.281Z,12.04
2023-10-31T09:20:32.431Z,12.08
2023-10-31T09:23:35.150Z,12.01
2023-10-31T09:26:38.602Z,12.01
2023-10-31T09:29:41.417Z,12.15
2023-10-31T09:32:44.258Z,12.22
2023-10-31T09:35:48.404Z,12.21
2023-10-31T09:38:51.030Z,12.34
2023-10-31T09:41:55.041Z,12.25
2023-10-31T09:44:58.071Z,12.21
2023-10-31T09:48:03.490Z,12.30
2023-10-31T09:51:09.172Z,12.12
2023-10-31T09:54:14.254Z,12.05
2023-10-31T09:57:18.169Z,11.90
2023-10-31T10:00:21.054Z,11.83
2023-10-31T10:03:24.547Z,11.81
2023-10-31T10:06:29.660Z,11.83
2023-10-31T10:09:33.400Z,11.72
2023-10-31T10:12:36.598Z,11.39
2023-10-31T10:15:46.315Z,11.37
2023-10-31T10:18:49.052Z,11.35
2023-10-31T10:21:54.992Z,11.28
2023-10-31T10:24:57.602Z,11.19
2023-10-31T10:28:00.232Z,11.32
2023-10-31T10:31:02.946Z,11.11
2023-10-31T10:34:06.367Z,11.12
2023-10-31T10:37:10.769Z,11.02
2023-10-31T10:40:13.891Z,11.27
2023-10-31T10:43:22.563Z,11.28
2023-10-31T10:46:27.242Z,11.12
2023-10-31T10:49:34.347Z,11.34
2023-10-31T10:52:47.714Z,11.21
2023-10-31T10:55:55.659Z,11.25
2023-10-31T10:59:05.092Z,11.31
2023-10-31T11:02:11.798Z,11.50
2023-10-31T11:05:15.808Z,11.56
2023-10-31T11:08:21.860Z,11.66
2023-10-31T11:11:25.229Z,11.79
2023-10-31T11:14:28.881Z,11.79
2023-10-31T11:17:34.094Z,11.97
2023-10-31T11:20:38.665Z,11.98
2023-10-31T11:23:43.032Z,11.98
2023-10-31T11:26:53.378Z,11.92
2023-10-31T11:29:56.861Z,12.08
2023-10-31T11:33:02.095Z,11.90
2023-10-31T11:36:06.801Z,11.78
2023-10-31T11:39:15.430Z,12.15
2023-10-31T11:42:20.172Z,12.12
2023-10-31T11:45:30.758Z,12.05
2023-10-31T11:48:52.212Z,12.15
2023-10-31T11:51:56.149Z,12.18
2023-10-31T11:55:00.313Z,12.34
2023-10-31T11:58:18.636Z,12.32
2023-10-31T12:01:21.287Z,12.46
2023-10-31T12:04:25.425Z,12.57
2023-10-31T12:07:28.257Z,12.59
2023-10-31T12:10:32.733Z,12.53
2023-10-31T12:13:36.168Z,12.40
2023-10-31T12:16:38.917Z,12.54
2023-10-31T12:19:42.524Z,12.66
2023-10-31T12:22:45.653Z,12.66
2023-10-31T12:25:50.353Z,12.72
2023-10-31T12:29:07.776Z,12.96
2023-10-31T12:32:14.554Z,12.94
2023-10-31T12:35:22.637Z,12.84
2023-10-31T12:38:25.637Z,12.83
2023-10-31T12:41:29.973Z,12.76
2023-10-31T12:44:32.878Z,12.79
2023-10-31T12:47:36.349Z,12.69
2023-10-31T12:50:41.375Z,12.74
2023-10-31T12:53:44.015Z,12.80
2023-10-31T12:56:48.046Z,12.87
2023-10-31T12:59:50.709Z,12.85
2023-10-31T13:02:54.442Z,12.90
2023-10-31T13:05:57.458Z,12.95
2023-10-31T13:09:00.915Z,13.01
2023-10-31T13:12:07.176Z,13.04
2023-10-31T13:15:11.678Z,13.11
2023-10-31T13:18:15.550Z,13.10
2023-10-31T13:21:18.910Z,13.15
2023-10-31T13:24:21.600Z,13.04
2023-10-31T13:27:25.639Z,13.15
2023-10-31T13:30:28.264Z,13.17
2023-10-31T13:33:30.925Z,13.16
2023-10-31T13:36:33.686Z,13.21
2023-10-31T13:39:36.357Z,13.29
2023-10-31T13:42:41.393Z,13.28
2023-10-31T13:45:44.072Z,13.30
2023-10-31T13:48:46.783Z,13.08
2023-10-31T13:51:50.263Z,13.15
2023-10-31T13:54:52.865Z,12.95
2023-10-31T13:57:56.864Z,12.67
2023-10-31T14:00:59.584Z,12.63
2023-10-31T14:04:02.401Z,12.63
2023-10-31T14:07:05.536Z,12.43
2023-10-31T14:10:08.843Z,12.47
2023-10-31T14:13:12.834Z,12.66
2023-10-31T14:16:16.161Z,12.61
2023-10-31T14:19:18.913Z,12.24
2023-10-31T14:22:21.889Z,11.90
2023-10-31T14:25:24.621Z,11.89
2023-10-31T14:28:28.616Z,11.85
2023-10-31T14:31:31.374Z,11.29
2023-10-31T14:34:34.030Z,11.20
2023-10-31T14:37:36.980Z,11.26
2023-10-31T14:40:39.686Z,11.14
2023-10-31T14:43:43.675Z,10.94
2023-10-31T14:46:46.381Z,10.81
2023-10-31T14:49:49.018Z,10.96
2023-10-31T14:52:51.714Z,10.82
2023-10-31T14:55:54.501Z,10.80
2023-10-31T14:58:58.755Z,10.51
2023-10-31T15:02:01.503Z,10.40
2023-10-31T15:05:04.972Z,10.41
2023-10-31T15:08:08.232Z,10.20
2023-10-31T15:11:10.927Z,10.22
2023-10-31T15:14:15.459Z,10.13
2023-10-31T15:17:18.160Z,9.96
2023-10-31T15:20:21.124Z,9.64
2023-10-31T15:23:23.774Z,9.58
2023-10-31T15:26:27.729Z,9.57
2023-10-31T15:29:32.169Z,9.51
2023-10-31T15:32:35.308Z,9.51
2023-10-31T15:35:38.043Z,9.76
2023-10-31T15:38:40.829Z,9.82
2023-10-31T15:41:43.577Z,9.58
2023-10-31T15:44:47.870Z,9.77
2023-10-31T15:47:50.689Z,9.69
2023-10-31T15:50:53.429Z,9.19
2023-10-31T15:53:56.052Z,9.43
2023-10-31T15:56:58.686Z,9.16
2023-10-31T16:00:04.565Z,9.25
2023-10-31T16:03:07.629Z,8.99
2023-10-31T16:06:10.417Z,9.26
2023-10-31T16:09:13.085Z,9.28
2023-10-31T16:12:16.901Z,9.34
2023-10-31T16:15:20.888Z,9.21
2023-10-31T16:18:23.582Z,9.29
2023-10-31T16:21:26.303Z,9.27
2023-10-31T16:24:28.941Z,9.10
2023-10-31T16:27:31.591Z,9.08
2023-10-31T16:30:35.587Z,9.13
2023-10-31T16:33:38.253Z,9.15
2023-10-31T16:36:40.920Z,9.05
2023-10-31T16:39:43.853Z,8.80
2023-10-31T16:42:46.594Z,8.95
2023-10-31T16:45:51.044Z,8.90
2023-10-31T16:48:53.808Z,8.91
2023-10-31T16:51:56.430Z,8.86
2023-10-31T16:55:00.235Z,9.02
2023-10-31T16:58:05.664Z,8.88
2023-10-31T17:01:09.674Z,8.72
2023-10-31T17:04:12.579Z,8.71
2023-10-31T17:07:15.305Z,8.84
2023-10-31T17:10:18.005Z,8.67
2023-10-31T17:13:20.659Z,8.75
2023-10-31T17:16:24.733Z,8.56
2023-10-31T17:19:27.764Z,8.45
2023-10-31T17:22:32.795Z,8.52
2023-10-31T17:25:37.607Z,8.43
2023-10-31T17:28:40.817Z,8.38
2023-10-31T17:31:44.979Z,8.35
2023-10-31T17:34:47.631Z,8.37
2023-10-31T17:37:51.012Z,8.50
2023-10-31T17:40:55.510Z,8.39
2023-10-31T17:43:58.147Z,8.20
2023-10-31T17:47:03.974Z,8.24
2023-10-31T17:50:08.731Z,8.04
2023-10-31T17:53:12.175Z,8.02
2023-10-31T17:56:14.962Z,8.00
2023-10-31T17:59:17.627Z,7.89
2023-10-31T18:02:21.715Z,7.98
2023-10-31T18:05:24.389Z,8.13
2023-10-31T18:08:27.107Z,7.97
2023-10-31T18:11:29.839Z,7.90
2023-10-31T18:14:32.559Z,7.82
2023-10-31T18:17:36.613Z,7.92
2023-10-31T18:20:39.365Z,7.91
2023-10-31T18:23:42.024Z,7.82
2023-10-31T18:26:44.760Z,7.94
2023-10-31T18:29:47.571Z,7.73
2023-10-31T18:32:52.258Z,7.64
2023-10-31T18:35:55.009Z,7.65
2023-10-31T18:38:57.663Z,7.63
2023-10-31T18:42:07.126Z,7.61
2023-10-31T18:45:15.363Z,7.49
2023-10-31T18:48:19.519Z,7.53
2023-10-31T18:51:22.195Z,7.47
2023-10-31T18:54:24.830Z,7.60
2023-10-31T18:57:27.691Z,7.44
2023-10-31T19:00:30.344Z,7.49
2023-10-31T19:03:34.485Z,7.56
2023-10-31T19:06:37.258Z,7.41
2023-10-31T19:09:39.896Z,7.40
2023-10-31T19:12:42.780Z,7.47
2023-10-31T19:15:45.393Z,7.43
2023-10-31T19:18:49.991Z,7.49
2023-10-31T19:21:52.638Z,7.55
2023-10-31T19:24:55.350Z,7.57
2023-10-31T19:27:57.992Z,7.60
2023-10-31T19:31:00.700Z,7.61
2023-10-31T19:34:04.704Z,7.62
2023-10-31T19:37:08.321Z,7.64
2023-10-31T19:40:12.489Z,7.71
2023-10-31T19:43:15.232Z,7.80
2023-10-31T19:46:17.956Z,7.88
2023-10-31T19:49:22.099Z,7.82
2023-10-31T19:52:24.747Z,7.85
2023-10-31T19:55:27.581Z,7.85
2023-10-31T19:58:30.295Z,7.87
2023-10-31T20:01:33.214Z,7.95
2023-10-31T20:04:37.260Z,7.91
2023-10-31T20:07:39.977Z,7.86
2023-10-31T20:10:44.143Z,7.81
2023-10-31T20:13:46.848Z,7.82
2023-10-31T20:16:49.623Z,7.75
2023-10-31T20:19:53.628Z,7.71
2023-10-31T20:22:56.309Z,7.65
2023-10-31T20:25:59.254Z,7.73
2023-10-31T20:29:03.224Z,7.72
2023-10-31T20:32:06.509Z,7.68
2023-10-31T20:35:10.671Z,7.60
2023-10-31T20:38:13.592Z,7.58
2023-10-31T20:41:16.272Z,7.63
2023-10-31T20:44:18.962Z,7.70
2023-10-31T20:47:21.599Z,7.77
2023-10-31T20:50:25.988Z,7.81
2023-10-31T20:53:28.654Z,7.80
2023-10-31T20:56:31.399Z,7.86
2023-10-31T20:59:34.118Z,7.82
2023-10-31T21:02:36.842Z,7.93
2023-10-31T21:05:40.921Z,7.90
2023-10-31T21:08:43.991Z,7.95
2023-10-31T21:11:46.696Z,8.02
2023-10-31T21:14:49.586Z,7.92
2023-10-31T21:17:52.476Z,8.00
2023-10-31T21:20:56.566Z,7.99
2023-10-31T21:24:01.237Z,7.99
2023-10-31T21:27:04.065Z,8.05
2023-10-31T21:30:08.107Z,8.16
2023-10-31T21:33:10.801Z,8.13
2023-10-31T21:36:14.901Z,8.17
2023-10-31T21:39:17.598Z,8.11
2023-10-31T21:42:20.250Z,8.13
2023-10-31T21:45:22.963Z,8.04
2023-10-31T21:48:25.960Z,8.12
2023-10-31T21:51:29.948Z,8.12
2023-10-31T21:54:33.838Z,8.04
2023-10-31T21:57:36.533Z,8.03
2023-10-31T22:00:39.980Z,8.03
2023-10-31T22:03:42.767Z,8.09
2023-10-31T22:06:47.003Z,8.03
2023-10-31T22:09:49.723Z,8.15
2023-10-31T22:12:54.608Z,8.16
2023-10-31T22:15:57.284Z,8.05
2023-10-31T22:19:00.099Z,8.17
2023-10-31T22:22:04.784Z,8.21
2023-10-31T22:25:08.303Z,8.21
2023-10-31T22:28:10.967Z,8.21
2023-10-31T22:31:13.614Z,8.21
2023-10-31T22:34:16.263Z,8.31
2023-10-31T22:37:20.233Z,8.24
2023-10-31T22:40:22.891Z,8.33
2023-10-31T22:43:25.651Z,8.34
2023-10-31T22:46:28.538Z,8.43
2023-10-31T22:49:31.161Z,8.34
2023-10-31T22:52:35.150Z,8.29
2023-10-31T22:55:37.809Z,8.38
2023-10-31T22:58:40.477Z,8.41
2023-10-31T23:01:43.210Z,8.42
2023-10-31T23:04:45.869Z,8.50
2023-10-31T23:07:53.427Z,8.50
2023-10-31T23:10:56.151Z,8.50
2023-10-31T23:13:58.784Z,8.53
2023-10-31T23:17:01.478Z,8.53
2023-10-31T23:20:04.138Z,8.48
2023-10-31T23:23:08.201Z,8.52
2023-10-31T23:26:11.097Z,8.58
2023-10-31T23:29:14.084Z,8.52
2023-10-31T23:32:16.894Z,8.61
2023-10-31T23:35:19.609Z,8.53
2023-10-31T23:38:23.660Z,8.66
2023-10-31T23:41:26.357Z,8.54
2023-10-31T23:44:29.299Z,8.57
2023-10-31T23:47:32.207Z,8.54
2023-10-31T23:50:34.946Z,8.60
2023-10-31T23:53:38.992Z,8.65
2023-10-31T23:56:41.636Z,8.69
2023-10-31T23:59:44.625Z,8.70
